createdAt,value
2019-03-15T00:01:34.830Z,7.00
2019-03-15T00:04:01.782Z,6.90
2019-03-15T00:06:28.757Z,6.90
2019-03-15T00:08:55.693Z,7.20
2019-03-15T00:11:22.646Z,7.10
2019-03-15T00:13:49.595Z,7.10
2019-03-15T00:16:16.619Z,7.10
2019-03-15T00:18:44.043Z,7.10
2019-03-15T00:21:10.992Z,7.10
2019-03-15T00:23:37.907Z,7.10
2019-03-15T00:26:04.847Z,7.10
2019-03-15T00:28:31.849Z,6.20
2019-03-15T00:30:58.818Z,7.10
2019-03-15T00:33:25.765Z,7.10
2019-03-15T00:35:52.717Z,7.00
2019-03-15T00:38:19.665Z,7.00
2019-03-15T00:40:46.615Z,7.00
2019-03-15T00:43:13.601Z,7.00
2019-03-15T00:45:40.536Z,7.00
2019-03-15T00:48:07.493Z,7.00
2019-03-15T00:50:34.428Z,6.90
2019-03-15T00:53:01.353Z,7.00
2019-03-15T00:55:28.293Z,6.90
2019-03-15T00:57:55.253Z,6.90
2019-03-15T01:00:22.185Z,7.00
2019-03-15T01:02:49.119Z,7.00
2019-03-15T01:05:16.101Z,7.00
2019-03-15T01:07:43.798Z,8.40
2019-03-15T01:10:10.697Z,6.90
2019-03-15T01:12:37.624Z,6.90
2019-03-15T01:15:04.733Z,7.00
2019-03-15T01:17:31.774Z,7.00
2019-03-15T01:20:00.133Z,7.30
2019-03-15T01:22:27.011Z,7.00
2019-03-15T01:24:53.965Z,7.10
2019-03-15T01:27:20.967Z,7.10
2019-03-15T01:29:48.139Z,7.00
2019-03-15T01:32:15.037Z,7.00
2019-03-15T01:34:41.978Z,7.00
2019-03-15T01:37:09.007Z,6.10
2019-03-15T01:39:36.231Z,7.40
2019-03-15T01:42:03.198Z,6.90
2019-03-15T01:44:30.136Z,6.90
2019-03-15T01:46:57.083Z,7.00
2019-03-15T01:49:24.000Z,6.90
2019-03-15T01:51:50.936Z,6.90
2019-03-15T01:54:17.845Z,7.00
2019-03-15T01:56:44.802Z,6.90
2019-03-15T01:59:11.713Z,6.90
2019-03-15T02:01:38.632Z,7.00
2019-03-15T02:04:05.866Z,7.20
2019-03-15T02:06:32.632Z,7.00
2019-03-15T02:08:59.546Z,7.20
2019-03-15T02:11:26.485Z,7.00
2019-03-15T02:13:53.401Z,7.10
2019-03-15T02:16:20.356Z,7.20
2019-03-15T02:18:47.305Z,7.20
2019-03-15T02:21:14.912Z,7.10
2019-03-15T02:23:42.519Z,7.10
2019-03-15T02:26:09.425Z,7.10
2019-03-15T02:28:36.349Z,7.10
2019-03-15T02:31:03.261Z,7.10
2019-03-15T02:33:30.202Z,7.20
2019-03-15T02:35:57.129Z,7.20
2019-03-15T02:38:24.050Z,7.20
2019-03-15T02:40:50.984Z,7.30
2019-03-15T02:43:19.111Z,7.20
2019-03-15T02:45:44.816Z,7.20
2019-03-15T02:48:11.920Z,7.20
2019-03-15T02:50:38.741Z,7.20
2019-03-15T02:53:05.669Z,7.30
2019-03-15T02:55:32.630Z,7.30
2019-03-15T02:57:59.655Z,7.40
2019-03-15T03:00:26.588Z,7.40
2019-03-15T03:02:54.183Z,8.10
2019-03-15T03:05:20.468Z,7.40
2019-03-15T03:07:48.198Z,7.30
2019-03-15T03:10:14.386Z,7.30
2019-03-15T03:12:41.313Z,7.40
2019-03-15T03:15:08.290Z,7.30
2019-03-15T03:17:35.194Z,7.30
2019-03-15T03:20:02.170Z,7.40
2019-03-15T03:22:30.605Z,7.40
2019-03-15T03:24:57.565Z,7.40
2019-03-15T03:27:24.505Z,7.40
2019-03-15T03:29:51.419Z,7.30
2019-03-15T03:32:18.368Z,7.30
2019-03-15T03:34:45.303Z,7.30
2019-03-15T03:37:12.259Z,7.30
2019-03-15T03:39:39.237Z,7.10
2019-03-15T03:42:06.170Z,7.10
2019-03-15T03:44:33.097Z,7.00
2019-03-15T03:47:00.053Z,7.00
2019-03-15T03:49:27.421Z,7.00
2019-03-15T03:51:53.945Z,7.10
2019-03-15T03:54:20.908Z,7.10
2019-03-15T03:56:47.841Z,7.10
2019-03-15T03:59:14.801Z,7.60
2019-03-15T04:01:41.750Z,7.20
2019-03-15T04:04:08.671Z,7.10
2019-03-15T04:06:35.628Z,7.10
2019-03-15T04:09:02.588Z,7.10
2019-03-15T04:11:29.516Z,7.10
2019-03-15T04:13:56.431Z,7.00
2019-03-15T04:16:23.377Z,7.20
2019-03-15T04:18:50.309Z,7.00
2019-03-15T04:21:17.243Z,7.00
2019-03-15T04:23:45.789Z,7.10
2019-03-15T04:26:12.724Z,7.00
2019-03-15T04:28:39.693Z,7.00
2019-03-15T04:31:06.657Z,7.00
2019-03-15T04:33:33.579Z,7.00
2019-03-15T04:36:00.509Z,7.00
2019-03-15T04:38:27.476Z,7.00
2019-03-15T04:40:54.424Z,6.90
2019-03-15T04:43:21.348Z,7.00
2019-03-15T04:45:48.317Z,7.00
2019-03-15T04:48:15.269Z,7.00
2019-03-15T04:50:42.204Z,7.30
2019-03-15T04:53:09.205Z,7.60
2019-03-15T04:55:36.332Z,7.10
2019-03-15T04:58:03.265Z,7.10
2019-03-15T05:00:30.247Z,5.30
2019-03-15T05:02:57.160Z,7.00
2019-03-15T05:05:24.090Z,7.10
2019-03-15T05:07:51.048Z,7.20
2019-03-15T05:10:18.001Z,7.10
2019-03-15T05:12:44.931Z,7.00
2019-03-15T05:15:11.877Z,7.10
2019-03-15T05:17:38.804Z,7.20
2019-03-15T05:20:05.915Z,7.20
2019-03-15T05:22:32.868Z,7.90
2019-03-15T05:25:00.376Z,7.20
2019-03-15T05:27:27.092Z,7.20
2019-03-15T05:29:54.069Z,7.20
2019-03-15T05:32:21.021Z,7.30
2019-03-15T05:34:47.965Z,7.20
2019-03-15T05:37:14.923Z,7.30
2019-03-15T05:39:41.875Z,7.30
2019-03-15T05:42:08.796Z,7.30
2019-03-15T05:44:35.761Z,7.30
2019-03-15T05:47:02.724Z,7.40
2019-03-15T05:49:29.708Z,7.40
2019-03-15T05:51:56.668Z,7.40
2019-03-15T05:54:23.623Z,7.30
2019-03-15T05:56:50.565Z,7.30
2019-03-15T05:59:17.550Z,7.30
2019-03-15T06:01:44.460Z,7.30
2019-03-15T06:04:11.401Z,7.70
2019-03-15T06:06:38.375Z,7.30
2019-03-15T06:09:05.372Z,7.40
2019-03-15T06:11:32.321Z,7.20
2019-03-15T06:13:59.268Z,7.20
2019-03-15T06:16:26.301Z,7.20
2019-03-15T06:18:53.233Z,7.20
2019-03-15T06:21:20.835Z,7.60
2019-03-15T06:23:47.805Z,7.20
2019-03-15T06:26:15.220Z,7.30
2019-03-15T06:28:42.220Z,7.20
2019-03-15T06:31:09.132Z,7.40
2019-03-15T06:33:36.202Z,7.20
2019-03-15T06:36:03.137Z,7.20
2019-03-15T06:38:33.305Z,7.20
2019-03-15T06:40:57.020Z,7.30
2019-03-15T06:43:23.972Z,7.30
2019-03-15T06:45:50.945Z,7.30
2019-03-15T06:48:17.876Z,7.30
2019-03-15T06:50:44.825Z,7.20
2019-03-15T06:53:11.761Z,7.20
2019-03-15T06:55:38.687Z,7.30
2019-03-15T06:58:05.645Z,7.30
2019-03-15T07:00:32.582Z,7.40
2019-03-15T07:02:59.527Z,7.40
2019-03-15T07:05:26.476Z,7.30
2019-03-15T07:07:53.446Z,7.30
2019-03-15T07:10:20.381Z,7.40
2019-03-15T07:12:47.320Z,7.40
2019-03-15T07:15:14.269Z,7.40
2019-03-15T07:17:41.806Z,7.40
2019-03-15T07:20:08.208Z,7.50
2019-03-15T07:22:35.136Z,7.40
2019-03-15T07:25:02.060Z,7.40
2019-03-15T07:27:30.469Z,7.40
2019-03-15T07:29:59.908Z,7.40
2019-03-15T07:32:24.356Z,7.40
2019-03-15T07:34:51.296Z,7.40
2019-03-15T07:37:18.252Z,7.40
2019-03-15T07:39:45.201Z,7.40
2019-03-15T07:42:12.143Z,7.40
2019-03-15T07:44:39.101Z,7.40
2019-03-15T07:47:06.080Z,7.40
2019-03-15T07:49:33.055Z,7.30
2019-03-15T07:51:59.975Z,7.40
2019-03-15T07:54:37.421Z,7.30
2019-03-15T07:56:53.978Z,7.40
2019-03-15T07:59:20.909Z,7.40
2019-03-15T08:01:47.923Z,7.30
2019-03-15T08:04:17.292Z,7.30
2019-03-15T08:06:41.877Z,7.30
2019-03-15T08:09:09.082Z,7.30
2019-03-15T08:11:35.797Z,7.30
2019-03-15T08:14:02.754Z,7.40
2019-03-15T08:16:29.701Z,7.40
2019-03-15T08:18:56.643Z,7.30
2019-03-15T08:21:23.589Z,7.30
2019-03-15T08:23:50.549Z,7.40
2019-03-15T08:26:17.497Z,7.30
2019-03-15T08:28:45.966Z,7.40
2019-03-15T08:31:12.926Z,7.50
2019-03-15T08:33:39.861Z,7.50
2019-03-15T08:36:06.877Z,7.60
2019-03-15T08:38:42.409Z,7.60
2019-03-15T08:41:00.789Z,7.70
2019-03-15T08:43:27.858Z,7.70
2019-03-15T08:45:54.717Z,7.60
2019-03-15T08:48:21.678Z,7.60
2019-03-15T08:50:48.609Z,7.60
2019-03-15T08:53:16.507Z,7.60
2019-03-15T08:55:43.765Z,7.70
2019-03-15T08:58:15.312Z,7.80
2019-03-15T09:00:37.849Z,8.20
2019-03-15T09:03:04.891Z,7.70
2019-03-15T09:05:31.821Z,7.90
2019-03-15T09:07:58.786Z,7.90
2019-03-15T09:10:25.729Z,7.90
2019-03-15T09:12:52.683Z,7.90
2019-03-15T09:15:19.607Z,8.10
2019-03-15T09:17:46.662Z,8.10
2019-03-15T09:20:13.669Z,8.10
2019-03-15T09:22:40.584Z,8.10
2019-03-15T09:25:18.561Z,8.20
2019-03-15T09:27:34.548Z,8.10
2019-03-15T09:30:03.096Z,8.10
2019-03-15T09:32:30.040Z,8.10
2019-03-15T09:34:56.997Z,8.20
2019-03-15T09:37:24.037Z,8.20
2019-03-15T09:39:50.946Z,8.30
2019-03-15T09:42:17.896Z,8.30
2019-03-15T09:44:44.836Z,8.40
2019-03-15T09:47:11.824Z,8.40
2019-03-15T09:49:38.789Z,8.40
2019-03-15T09:52:05.977Z,8.30
2019-03-15T09:54:32.943Z,8.40
2019-03-15T09:56:59.921Z,9.60
2019-03-15T09:59:26.867Z,8.50
2019-03-15T10:01:53.877Z,8.40
2019-03-15T10:04:20.865Z,8.50
2019-03-15T10:06:47.820Z,7.70
2019-03-15T10:09:14.776Z,8.60
2019-03-15T10:11:41.717Z,7.80
2019-03-15T10:14:08.649Z,8.60
2019-03-15T10:16:35.650Z,8.60
2019-03-15T10:19:02.589Z,8.70
2019-03-15T10:21:29.837Z,8.80
2019-03-15T10:23:57.858Z,8.70
2019-03-15T10:26:24.789Z,8.70
2019-03-15T10:28:51.740Z,10.70
2019-03-15T10:31:20.145Z,8.80
2019-03-15T10:33:50.592Z,8.80
2019-03-15T10:36:14.147Z,8.90
2019-03-15T10:38:41.104Z,8.90
2019-03-15T10:41:08.101Z,8.90
2019-03-15T10:43:35.049Z,8.90
2019-03-15T10:46:02.143Z,9.00
2019-03-15T10:48:29.387Z,9.10
2019-03-15T10:50:56.317Z,9.10
2019-03-15T10:53:23.314Z,9.90
2019-03-15T10:55:59.530Z,9.20
2019-03-15T10:58:17.318Z,9.20
2019-03-15T11:00:44.290Z,9.30
2019-03-15T11:03:13.094Z,9.30
2019-03-15T11:05:38.138Z,9.30
2019-03-15T11:08:05.113Z,9.40
2019-03-15T11:10:32.014Z,9.40
2019-03-15T11:12:58.953Z,9.40
2019-03-15T11:15:25.917Z,9.50
2019-03-15T11:17:52.867Z,9.50
2019-03-15T11:20:19.816Z,9.70
2019-03-15T11:22:46.774Z,9.70
2019-03-15T11:25:13.766Z,9.80
2019-03-15T11:27:40.725Z,9.80
2019-03-15T11:30:07.699Z,9.80
2019-03-15T11:32:35.054Z,9.90
2019-03-15T11:35:01.987Z,9.90
2019-03-15T11:37:28.933Z,10.00
2019-03-15T11:39:55.914Z,10.00
2019-03-15T11:42:22.831Z,10.10
2019-03-15T11:44:49.768Z,10.10
2019-03-15T11:47:16.825Z,10.20
2019-03-15T11:49:43.631Z,10.30
2019-03-15T11:52:10.569Z,10.30
2019-03-15T11:54:37.489Z,10.50
2019-03-15T11:57:04.421Z,10.50
2019-03-15T11:59:31.387Z,10.60
2019-03-15T12:02:04.049Z,10.60
2019-03-15T12:04:25.259Z,10.70
2019-03-15T12:06:52.217Z,10.70
2019-03-15T12:09:19.168Z,10.70
2019-03-15T12:11:46.113Z,8.40
2019-03-15T12:14:13.070Z,10.80
2019-03-15T12:16:40.000Z,10.80
2019-03-15T12:19:06.908Z,10.90
2019-03-15T12:21:33.952Z,11.00
2019-03-15T12:24:00.872Z,10.90
2019-03-15T12:26:39.832Z,11.00
2019-03-15T12:28:54.829Z,10.20
2019-03-15T12:31:21.765Z,11.20
2019-03-15T12:33:49.137Z,11.10
2019-03-15T12:36:16.075Z,11.20
2019-03-15T12:38:42.999Z,11.20
2019-03-15T12:41:09.990Z,11.30
2019-03-15T12:43:36.987Z,11.40
2019-03-15T12:46:03.935Z,11.50
2019-03-15T12:48:30.844Z,11.60
2019-03-15T12:50:57.834Z,11.80
2019-03-15T12:53:24.776Z,11.70
2019-03-15T12:55:51.776Z,11.70
2019-03-15T12:58:18.721Z,11.70
2019-03-15T13:00:45.818Z,11.70
2019-03-15T13:03:12.793Z,11.80
2019-03-15T13:05:39.750Z,11.80
2019-03-15T13:08:06.675Z,11.90
2019-03-15T13:10:33.608Z,11.90
2019-03-15T13:13:00.606Z,11.80
2019-03-15T13:15:27.572Z,11.90
2019-03-15T13:17:54.499Z,11.80
2019-03-15T13:20:21.449Z,11.80
2019-03-15T13:22:48.377Z,11.90
2019-03-15T13:25:15.312Z,11.90
2019-03-15T13:27:42.357Z,11.90
2019-03-15T13:30:09.240Z,11.90
2019-03-15T13:32:36.174Z,12.00
2019-03-15T13:35:03.520Z,12.00
2019-03-15T13:37:30.445Z,12.10
2019-03-15T13:39:57.387Z,12.10
2019-03-15T13:42:24.325Z,12.00
2019-03-15T13:44:51.260Z,12.00
2019-03-15T13:47:18.172Z,12.00
2019-03-15T13:49:45.130Z,11.90
2019-03-15T13:52:12.103Z,12.00
2019-03-15T13:54:38.984Z,12.00
2019-03-15T13:57:05.945Z,12.00
2019-03-15T13:59:32.892Z,11.90
2019-03-15T14:01:59.842Z,12.00
2019-03-15T14:04:26.774Z,12.00
2019-03-15T14:06:53.745Z,12.00
2019-03-15T14:09:20.684Z,10.90
2019-03-15T14:11:47.632Z,12.10
2019-03-15T14:14:14.561Z,12.20
2019-03-15T14:16:41.486Z,12.10
2019-03-15T14:19:08.475Z,12.10
2019-03-15T14:21:35.428Z,12.10
2019-03-15T14:24:02.379Z,12.10
2019-03-15T14:26:29.336Z,12.20
2019-03-15T14:28:56.330Z,12.20
2019-03-15T14:31:23.257Z,12.30
2019-03-15T14:33:50.192Z,12.20
2019-03-15T14:36:17.417Z,12.30
2019-03-15T14:38:44.459Z,12.30
2019-03-15T14:41:11.492Z,12.30
2019-03-15T14:43:38.314Z,12.30
2019-03-15T14:46:05.282Z,12.20
2019-03-15T14:48:32.220Z,12.30
2019-03-15T14:50:59.214Z,12.30
2019-03-15T14:53:27.120Z,11.30
2019-03-15T14:56:02.550Z,12.30
2019-03-15T14:58:31.185Z,12.20
2019-03-15T15:00:58.156Z,12.30
2019-03-15T15:03:25.119Z,12.00
2019-03-15T15:05:52.050Z,12.30
2019-03-15T15:08:18.960Z,12.30
2019-03-15T15:10:45.989Z,12.30
2019-03-15T15:13:12.938Z,12.30
2019-03-15T15:15:39.873Z,12.30
2019-03-15T15:18:06.829Z,12.30
2019-03-15T15:20:33.760Z,12.30
2019-03-15T15:23:00.675Z,12.30
2019-03-15T15:25:27.647Z,12.30
2019-03-15T15:28:03.904Z,12.40
2019-03-15T15:30:21.497Z,12.40
2019-03-15T15:32:48.447Z,12.40
2019-03-15T15:35:15.413Z,12.50
2019-03-15T15:37:42.847Z,12.50
2019-03-15T15:40:09.790Z,12.50
2019-03-15T15:42:36.853Z,12.50
2019-03-15T15:45:04.188Z,12.50
2019-03-15T15:47:31.123Z,12.50
2019-03-15T15:49:58.089Z,12.50
2019-03-15T15:52:25.106Z,12.50
2019-03-15T15:54:52.088Z,12.50
2019-03-15T15:57:35.534Z,12.60
2019-03-15T16:00:01.954Z,12.50
2019-03-15T16:02:28.949Z,12.50
2019-03-15T16:04:55.862Z,12.50
2019-03-15T16:07:22.820Z,12.50
2019-03-15T16:09:49.748Z,12.60
2019-03-15T16:12:16.659Z,12.50
2019-03-15T16:14:43.625Z,12.50
2019-03-15T16:17:10.544Z,12.50
2019-03-15T16:19:37.472Z,12.40
2019-03-15T16:22:04.416Z,12.40
2019-03-15T16:24:31.346Z,12.50
2019-03-15T16:26:58.293Z,12.50
2019-03-15T16:29:25.258Z,12.50
2019-03-15T16:31:52.208Z,12.50
2019-03-15T16:34:21.943Z,12.50
2019-03-15T16:36:46.160Z,12.50
2019-03-15T16:39:13.330Z,12.40
2019-03-15T16:41:40.247Z,12.40
2019-03-15T16:44:07.196Z,12.50
2019-03-15T16:46:34.124Z,12.50
2019-03-15T16:49:01.055Z,12.40
2019-03-15T16:51:28.020Z,12.50
2019-03-15T16:53:54.944Z,12.50
2019-03-15T16:56:21.886Z,12.50
2019-03-15T16:58:48.840Z,12.50
2019-03-15T17:01:15.766Z,12.50
2019-03-15T17:03:42.712Z,12.50
2019-03-15T17:06:09.680Z,12.40
2019-03-15T17:08:36.653Z,12.40
2019-03-15T17:11:03.570Z,12.40
2019-03-15T17:13:30.518Z,12.40
2019-03-15T17:15:57.514Z,12.40
2019-03-15T17:18:24.413Z,12.40
2019-03-15T17:20:51.367Z,12.40
2019-03-15T17:23:18.396Z,12.50
2019-03-15T17:25:45.317Z,11.30
2019-03-15T17:28:12.264Z,12.50
2019-03-15T17:30:39.260Z,12.50
2019-03-15T17:33:06.403Z,12.30
2019-03-15T17:35:33.140Z,12.50
2019-03-15T17:38:00.071Z,12.60
2019-03-15T17:40:28.374Z,12.50
2019-03-15T17:42:55.323Z,12.50
2019-03-15T17:45:22.306Z,12.60
2019-03-15T17:47:49.192Z,12.60
2019-03-15T17:50:16.194Z,12.60
2019-03-15T17:52:43.120Z,12.60
2019-03-15T17:55:10.039Z,12.60
2019-03-15T17:57:36.984Z,12.50
2019-03-15T18:00:09.886Z,12.50
2019-03-15T18:02:36.737Z,12.50
2019-03-15T18:05:03.993Z,12.40
2019-03-15T18:07:30.969Z,12.40
2019-03-15T18:09:57.921Z,12.40
2019-03-15T18:12:24.857Z,12.30
2019-03-15T18:14:51.793Z,12.30
2019-03-15T18:17:18.778Z,12.40
2019-03-15T18:19:45.763Z,12.40
2019-03-15T18:22:12.688Z,12.40
2019-03-15T18:24:43.006Z,12.30
2019-03-15T18:27:06.568Z,12.40
2019-03-15T18:29:33.529Z,12.30
2019-03-15T18:32:00.444Z,12.30
2019-03-15T18:34:27.736Z,12.30
2019-03-15T18:36:54.652Z,12.40
2019-03-15T18:39:21.585Z,12.20
2019-03-15T18:41:50.574Z,12.30
2019-03-15T18:44:16.005Z,12.20
2019-03-15T18:46:42.961Z,12.20
2019-03-15T18:49:09.917Z,12.30
2019-03-15T18:51:36.845Z,12.20
2019-03-15T18:54:16.728Z,12.30
2019-03-15T18:56:30.751Z,12.30
2019-03-15T18:58:57.710Z,12.40
2019-03-15T19:01:24.662Z,12.30
2019-03-15T19:03:51.659Z,12.40
2019-03-15T19:06:18.617Z,12.40
2019-03-15T19:08:45.673Z,12.40
2019-03-15T19:11:12.625Z,12.40
2019-03-15T19:13:39.583Z,12.40
2019-03-15T19:16:19.340Z,12.40
2019-03-15T19:18:33.497Z,12.40
2019-03-15T19:21:00.485Z,12.40
2019-03-15T19:23:27.429Z,12.40
2019-03-15T19:25:54.409Z,12.50
2019-03-15T19:28:21.347Z,12.50
2019-03-15T19:30:48.298Z,12.50
2019-03-15T19:33:15.265Z,12.40
2019-03-15T19:35:42.268Z,12.40
2019-03-15T19:38:09.246Z,12.40
2019-03-15T19:40:36.196Z,12.40
2019-03-15T19:43:04.560Z,12.40
2019-03-15T19:45:31.512Z,12.50
2019-03-15T19:47:58.472Z,12.40
2019-03-15T19:50:25.441Z,12.40
2019-03-15T19:52:52.417Z,12.40
2019-03-15T19:55:19.385Z,12.40
2019-03-15T19:57:46.510Z,12.40
2019-03-15T20:00:13.874Z,12.50
2019-03-15T20:02:41.039Z,12.40
2019-03-15T20:05:08.228Z,12.40
2019-03-15T20:07:35.320Z,12.40
2019-03-15T20:10:02.360Z,12.40
2019-03-15T20:12:29.477Z,12.40
2019-03-15T20:14:56.437Z,12.40
2019-03-15T20:17:23.413Z,12.40
2019-03-15T20:19:50.342Z,12.40
2019-03-15T20:22:17.285Z,12.40
2019-03-15T20:24:44.250Z,12.30
2019-03-15T20:27:13.217Z,12.40
2019-03-15T20:29:40.101Z,12.30
2019-03-15T20:32:07.076Z,12.30
2019-03-15T20:34:34.001Z,12.30
2019-03-15T20:37:01.092Z,12.20
2019-03-15T20:39:28.035Z,12.30
2019-03-15T20:41:55.016Z,12.20
2019-03-15T20:44:28.447Z,12.20
2019-03-15T20:46:49.498Z,12.20
2019-03-15T20:49:16.681Z,12.10
2019-03-15T20:51:43.621Z,12.10
2019-03-15T20:54:10.556Z,12.10
2019-03-15T20:56:37.510Z,12.10
2019-03-15T20:59:04.595Z,12.10
2019-03-15T21:01:31.841Z,12.00
2019-03-15T21:03:59.480Z,12.00
2019-03-15T21:06:26.586Z,12.00
2019-03-15T21:08:53.632Z,12.00
2019-03-15T21:11:20.578Z,12.00
2019-03-15T21:13:47.518Z,12.00
2019-03-15T21:16:14.466Z,12.00
2019-03-15T21:18:41.399Z,11.90
2019-03-15T21:21:08.353Z,11.90
2019-03-15T21:23:35.286Z,11.90
2019-03-15T21:26:02.252Z,11.90
2019-03-15T21:28:29.188Z,11.80
2019-03-15T21:30:56.182Z,11.90
2019-03-15T21:33:23.133Z,11.90
2019-03-15T21:35:50.084Z,11.80
2019-03-15T21:38:17.061Z,11.90
2019-03-15T21:40:44.022Z,10.30
2019-03-15T21:43:11.123Z,11.90
2019-03-15T21:45:39.554Z,11.90
2019-03-15T21:48:06.460Z,12.00
2019-03-15T21:50:33.421Z,12.00
2019-03-15T21:53:00.372Z,12.00
2019-03-15T21:55:27.300Z,12.00
2019-03-15T21:57:54.223Z,12.00
2019-03-15T22:00:21.166Z,11.90
2019-03-15T22:02:48.114Z,12.00
2019-03-15T22:05:15.038Z,12.00
2019-03-15T22:07:41.996Z,12.00
2019-03-15T22:10:09.248Z,11.90
2019-03-15T22:12:36.176Z,11.90
2019-03-15T22:15:03.392Z,11.90
2019-03-15T22:17:30.357Z,12.00
2019-03-15T22:19:57.257Z,12.00
2019-03-15T22:22:24.198Z,12.00
2019-03-15T22:24:51.130Z,11.90
2019-03-15T22:27:18.089Z,11.90
2019-03-15T22:29:53.329Z,11.90
2019-03-15T22:32:11.969Z,11.90
2019-03-15T22:34:38.895Z,11.90
2019-03-15T22:37:05.852Z,11.90
2019-03-15T22:39:32.772Z,11.80
2019-03-15T22:41:59.844Z,11.80
2019-03-15T22:44:26.873Z,11.80
2019-03-15T22:46:54.125Z,11.80
2019-03-15T22:49:21.047Z,11.70
2019-03-15T22:51:48.000Z,11.80
2019-03-15T22:54:14.931Z,11.80
2019-03-15T22:56:41.860Z,11.70
2019-03-15T22:59:08.792Z,11.80
2019-03-15T23:01:35.721Z,11.70
2019-03-15T23:04:02.653Z,11.70
2019-03-15T23:06:29.597Z,11.70
2019-03-15T23:08:56.528Z,11.70
2019-03-15T23:11:23.449Z,11.70
2019-03-15T23:13:50.400Z,11.60
2019-03-15T23:16:17.341Z,11.60
2019-03-15T23:18:44.284Z,11.60
2019-03-15T23:21:11.229Z,11.60
2019-03-15T23:23:38.163Z,11.60
2019-03-15T23:26:05.159Z,11.50
2019-03-15T23:28:32.108Z,11.50
2019-03-15T23:30:59.041Z,11.50
2019-03-15T23:33:25.959Z,11.50
2019-03-15T23:35:54.402Z,11.50
2019-03-15T23:38:19.965Z,11.50
2019-03-15T23:40:46.914Z,11.40
2019-03-15T23:43:14.001Z,11.50
2019-03-15T23:45:40.950Z,11.40
2019-03-15T23:48:08.091Z,11.50
2019-03-15T23:50:35.031Z,11.40
2019-03-15T23:53:01.966Z,11.40
2019-03-15T23:55:28.904Z,11.40
2019-03-15T23:57:56.129Z,11.40
